Huvudsida
METAR-TAF:

METAR-TAF

Flygplatser :

Parana Airport flygplats

Curitiba, Paraná, Brasilien

latitud: 25-26S, longitud: 049-16W, höjd: 924 m

Aktuellt väderrapport

Denna rapport gjordes för 1 timme och 2 minuter sedan, klockan 20:00 UTC
Vind 3 kt från nordväst
Temperatur 20°C
Fuktighet 49%
Tryck 1020 hPa
Sikt 10 km eller mer
Inga moln under 1 500 m eller inga cumulonimbus

METAR: SBBI 292000Z 31003KT CAVOK 20/09 Q1020

Tid: 18:02 (21:02 UTC)

Väderprognos

Denna rapport gjordes för 6 timmar och 2 minuter sedan, klockan 15:00 UTC
Prognos gäller från 29 kl. 18 UTC till 30 kl. 06 UTC
Vind 6 kt från ost/nordost
Sikt 10 km eller mer
Inga moln under 1 500 m eller inga cumulonimbus

TAF: SBBI 291500Z 2918/3006 06006KT CAVOK TX22/2918Z TN08/3006Z RMK PEQ

Aktuella väderrapporter och prognoser från 4000 flygplatser (METAR- och TAF-rapporter).

De tillgängliga stationerna syns som gula och röda prickar på kartan.

För musen över prickarna för att se namnen på stationerna.

Klicka sedan för att få väderrapporter och prognoser.

För att ändra kartan: Klicka på de gröna knapparna med ett svart kors på för att zooma in; den gröna knappen med ett streck på för att zooma ut; eller på de gröna pilarna för angränsande kartor.


METAR-TAF: